createdAt,value
2023-06-17T00:00:41.245Z,0.00
2023-06-17T00:01:41.177Z,0.00
2023-06-17T00:02:41.316Z,0.00
2023-06-17T00:03:41.158Z,0.00
2023-06-17T00:04:41.165Z,0.00
2023-06-17T00:05:41.186Z,0.00
2023-06-17T00:06:41.138Z,0.00
2023-06-17T00:07:42.067Z,0.00
2023-06-17T00:08:41.143Z,0.00
2023-06-17T00:09:41.101Z,0.00
2023-06-17T00:10:41.135Z,0.00
2023-06-17T00:11:41.143Z,0.00
2023-06-17T00:12:41.095Z,0.00
2023-06-17T00:13:41.079Z,0.00
2023-06-17T00:14:41.114Z,0.00
2023-06-17T00:15:41.067Z,0.00
2023-06-17T00:16:41.099Z,0.00
2023-06-17T00:17:41.072Z,0.00
2023-06-17T00:18:41.086Z,0.00
2023-06-17T00:19:41.049Z,0.00
2023-06-17T00:20:41.094Z,0.00
2023-06-17T00:21:41.061Z,0.00
2023-06-17T00:22:41.015Z,0.00
2023-06-17T00:23:41.030Z,0.00
2023-06-17T00:24:41.029Z,0.00
2023-06-17T00:25:41.038Z,0.00
2023-06-17T00:26:40.988Z,0.00
2023-06-17T00:27:41.010Z,0.00
2023-06-17T00:28:40.985Z,0.00
2023-06-17T00:29:41.576Z,0.00
2023-06-17T00:30:40.952Z,0.00
2023-06-17T00:31:40.973Z,0.00
2023-06-17T00:32:42.262Z,0.00
2023-06-17T00:33:40.954Z,0.00
2023-06-17T00:34:40.918Z,0.00
2023-06-17T00:35:40.916Z,0.00
2023-06-17T00:36:40.909Z,0.00
2023-06-17T00:37:40.923Z,0.00
2023-06-17T00:38:40.914Z,0.00
2023-06-17T00:39:40.890Z,0.00
2023-06-17T00:40:40.902Z,0.00
2023-06-17T00:41:40.894Z,0.00
2023-06-17T00:42:40.854Z,0.00
2023-06-17T00:43:40.836Z,0.00
2023-06-17T00:44:40.848Z,0.00
2023-06-17T00:45:40.894Z,0.00
2023-06-17T00:46:40.934Z,0.00
2023-06-17T00:47:40.875Z,0.00
2023-06-17T00:48:40.822Z,0.00
2023-06-17T00:49:40.822Z,0.00
2023-06-17T00:50:40.869Z,0.00
2023-06-17T00:51:40.801Z,0.00
2023-06-17T00:52:42.622Z,0.00
2023-06-17T00:53:41.786Z,0.00
2023-06-17T00:54:40.801Z,0.00
2023-06-17T00:55:40.773Z,0.00
2023-06-17T00:56:40.740Z,0.00
2023-06-17T00:57:40.740Z,0.00
2023-06-17T00:58:40.756Z,0.00
2023-06-17T00:59:41.758Z,0.00
2023-06-17T01:00:41.558Z,0.00
2023-06-17T01:01:40.714Z,0.00
2023-06-17T01:02:40.776Z,0.00
2023-06-17T01:03:40.777Z,0.00
2023-06-17T01:04:40.727Z,0.00
2023-06-17T01:05:41.457Z,0.00
2023-06-17T01:06:41.456Z,0.00
2023-06-17T01:07:40.678Z,0.00
2023-06-17T01:08:40.686Z,0.00
2023-06-17T01:09:40.646Z,0.00
2023-06-17T01:10:40.658Z,0.00
2023-06-17T01:11:40.656Z,0.00
2023-06-17T01:12:40.635Z,0.00
2023-06-17T01:13:40.624Z,0.00
2023-06-17T01:14:41.646Z,0.00
2023-06-17T01:15:40.640Z,0.00
2023-06-17T01:16:40.637Z,0.00
2023-06-17T01:17:40.642Z,0.00
2023-06-17T01:18:40.635Z,0.00
2023-06-17T01:19:40.575Z,0.00
2023-06-17T01:20:40.631Z,0.00
2023-06-17T01:21:40.609Z,0.00
2023-06-17T01:22:40.593Z,0.00
2023-06-17T01:23:40.543Z,0.00
2023-06-17T01:24:40.572Z,0.00
2023-06-17T01:25:40.557Z,0.00
2023-06-17T01:26:40.579Z,0.00
2023-06-17T01:27:41.046Z,0.00
2023-06-17T01:28:40.530Z,0.00
2023-06-17T01:29:40.550Z,0.00
2023-06-17T01:30:40.513Z,0.00
2023-06-17T01:31:40.502Z,0.00
2023-06-17T01:32:40.519Z,0.00
2023-06-17T01:33:40.487Z,0.00
2023-06-17T01:34:40.484Z,0.00
2023-06-17T01:35:41.497Z,0.00
2023-06-17T01:36:40.548Z,0.00
2023-06-17T01:37:40.455Z,0.00
2023-06-17T01:38:40.464Z,0.00
2023-06-17T01:39:40.516Z,0.00
2023-06-17T01:40:40.479Z,0.00
2023-06-17T01:41:40.405Z,0.00
2023-06-17T01:42:40.422Z,0.00
2023-06-17T01:43:40.442Z,0.00
2023-06-17T01:44:40.437Z,0.00
2023-06-17T01:45:40.427Z,0.00
2023-06-17T01:46:40.397Z,0.00
2023-06-17T01:47:40.437Z,0.00
2023-06-17T01:48:40.385Z,0.00
2023-06-17T01:49:40.367Z,0.00
2023-06-17T01:50:40.355Z,0.00
2023-06-17T01:51:40.378Z,0.00
2023-06-17T01:52:40.350Z,0.00
2023-06-17T01:53:40.352Z,0.00
2023-06-17T01:54:40.340Z,0.00
2023-06-17T01:55:40.302Z,0.00
2023-06-17T01:56:40.346Z,0.00
2023-06-17T01:57:40.288Z,0.00
2023-06-17T01:58:40.284Z,0.00
2023-06-17T01:59:40.285Z,0.00
2023-06-17T02:00:40.291Z,0.00
2023-06-17T02:01:40.288Z,0.00
2023-06-17T02:02:40.339Z,0.00
2023-06-17T02:03:40.348Z,0.00
2023-06-17T02:04:40.288Z,0.00
2023-06-17T02:05:40.229Z,0.00
2023-06-17T02:06:40.233Z,0.00
2023-06-17T02:07:40.259Z,0.00
2023-06-17T02:08:40.244Z,0.00
2023-06-17T02:09:41.879Z,0.00
2023-06-17T02:10:40.205Z,0.00
2023-06-17T02:11:41.066Z,0.00
2023-06-17T02:12:40.195Z,0.00
2023-06-17T02:13:40.186Z,0.00
2023-06-17T02:14:40.173Z,0.00
2023-06-17T02:15:40.221Z,0.00
2023-06-17T02:16:40.195Z,0.00
2023-06-17T02:17:40.208Z,0.00
2023-06-17T02:18:40.165Z,0.00
2023-06-17T02:19:40.159Z,0.00
2023-06-17T02:20:40.137Z,4.00
2023-06-17T02:21:40.139Z,4.00
2023-06-17T02:22:40.099Z,4.00
2023-06-17T02:23:40.512Z,4.00
2023-06-17T02:24:40.176Z,0.00
2023-06-17T02:25:41.220Z,4.00
2023-06-17T02:26:40.070Z,4.00
2023-06-17T02:27:40.072Z,4.00
2023-06-17T02:28:40.065Z,4.00
2023-06-17T02:29:41.575Z,4.00
2023-06-17T02:30:40.049Z,4.00
2023-06-17T02:31:40.119Z,8.00
2023-06-17T02:32:40.086Z,4.00
2023-06-17T02:33:40.006Z,4.00
2023-06-17T02:34:40.035Z,8.00
2023-06-17T02:35:40.018Z,12.00
2023-06-17T02:36:39.993Z,12.00
2023-06-17T02:37:40.559Z,12.00
2023-06-17T02:38:39.962Z,12.00
2023-06-17T02:39:40.546Z,12.00
2023-06-17T02:40:40.018Z,16.00
2023-06-17T02:41:39.950Z,16.00
2023-06-17T02:42:39.958Z,24.00
2023-06-17T02:43:39.951Z,24.00
2023-06-17T02:44:39.926Z,28.00
2023-06-17T02:45:39.945Z,32.00
2023-06-17T02:46:39.991Z,36.00
2023-06-17T02:47:40.532Z,36.00
2023-06-17T02:48:39.887Z,44.00
2023-06-17T02:49:39.890Z,48.00
2023-06-17T02:50:39.888Z,52.00
2023-06-17T02:51:39.913Z,60.00
2023-06-17T02:52:39.876Z,64.00
2023-06-17T02:53:39.848Z,72.00
2023-06-17T02:54:39.853Z,80.00
2023-06-17T02:55:39.860Z,88.00
2023-06-17T02:56:39.832Z,100.00
2023-06-17T02:57:39.861Z,108.00
2023-06-17T02:58:39.815Z,124.00
2023-06-17T02:59:39.968Z,136.00
2023-06-17T03:00:39.859Z,148.00
2023-06-17T03:01:39.776Z,164.00
2023-06-17T03:02:39.892Z,180.00
2023-06-17T03:03:39.756Z,196.00
2023-06-17T03:04:39.778Z,212.00
2023-06-17T03:05:39.847Z,228.00
2023-06-17T03:06:39.746Z,244.00
2023-06-17T03:07:39.740Z,264.00
2023-06-17T03:08:39.751Z,280.00
2023-06-17T03:09:40.400Z,300.00
2023-06-17T03:10:39.732Z,324.00
2023-06-17T03:11:39.706Z,340.00
2023-06-17T03:12:39.713Z,368.00
2023-06-17T03:13:39.701Z,396.00
2023-06-17T03:14:39.747Z,428.00
2023-06-17T03:15:39.687Z,456.00
2023-06-17T03:16:40.583Z,488.00
2023-06-17T03:17:39.716Z,524.00
2023-06-17T03:18:39.677Z,560.00
2023-06-17T03:19:39.677Z,596.00
2023-06-17T03:20:39.674Z,636.00
2023-06-17T03:21:39.678Z,680.00
2023-06-17T03:22:39.658Z,724.00
2023-06-17T03:23:39.647Z,772.00
2023-06-17T03:24:39.767Z,824.00
2023-06-17T03:25:39.625Z,880.00
2023-06-17T03:26:39.648Z,940.00
2023-06-17T03:27:39.616Z,1004.00
2023-06-17T03:28:39.620Z,1072.00
2023-06-17T03:29:39.607Z,1140.00
2023-06-17T03:30:39.617Z,1208.00
2023-06-17T03:31:39.612Z,1260.00
2023-06-17T03:32:39.577Z,1288.00
2023-06-17T03:33:39.587Z,1308.00
2023-06-17T03:34:40.084Z,1352.00
2023-06-17T03:35:39.582Z,1656.00
2023-06-17T03:36:39.562Z,2040.00
2023-06-17T03:37:39.541Z,2548.00
2023-06-17T03:38:39.510Z,3440.00
2023-06-17T03:39:39.513Z,4404.00
2023-06-17T03:40:39.508Z,4648.00
2023-06-17T03:41:39.545Z,3492.00
2023-06-17T03:42:39.503Z,2448.00
2023-06-17T03:43:39.481Z,1924.00
2023-06-17T03:44:39.458Z,1860.00
2023-06-17T03:45:39.461Z,1944.00
2023-06-17T03:46:39.481Z,2032.00
2023-06-17T03:47:39.480Z,2136.00
2023-06-17T04:03:46.559Z,7620.00
2023-06-17T04:04:46.353Z,8220.00
2023-06-17T04:05:46.365Z,9608.00
2023-06-17T04:06:47.528Z,9924.00
2023-06-17T04:07:47.498Z,10308.00
2023-06-17T04:08:47.495Z,10504.00
2023-06-17T04:10:01.751Z,10764.00
2023-06-17T04:10:48.454Z,10812.00
2023-06-17T04:11:47.480Z,12448.00
2023-06-17T04:12:47.461Z,12768.00
2023-06-17T04:13:47.433Z,12256.00
2023-06-17T04:14:47.447Z,11688.00
2023-06-17T04:15:47.562Z,12172.00
2023-06-17T04:16:51.604Z,12736.00
2023-06-17T04:17:47.514Z,13152.00
2023-06-17T04:18:47.413Z,13632.00
2023-06-17T04:19:47.412Z,13920.00
2023-06-17T04:20:47.383Z,13984.00
2023-06-17T04:21:47.432Z,13920.00
2023-06-17T04:22:47.408Z,14016.00
2023-06-17T04:23:47.359Z,14560.00
2023-06-17T04:24:47.375Z,15200.00
2023-06-17T04:25:47.341Z,15200.00
2023-06-17T04:26:47.336Z,14976.00
2023-06-17T04:27:47.333Z,15264.00
2023-06-17T04:28:47.347Z,15968.00
2023-06-17T04:29:47.334Z,16320.00
2023-06-17T04:30:47.329Z,16864.00
2023-06-17T04:31:47.389Z,17632.00
2023-06-17T04:32:48.652Z,18304.00
2023-06-17T04:33:47.308Z,18432.00
2023-06-17T04:34:47.310Z,18240.00
2023-06-17T04:35:47.308Z,18688.00
2023-06-17T04:36:47.295Z,19424.00
2023-06-17T04:37:47.285Z,20416.00
2023-06-17T04:38:47.261Z,22048.00
2023-06-17T04:39:47.306Z,22560.00
2023-06-17T04:40:47.290Z,23200.00
2023-06-17T04:41:47.362Z,23744.00
2023-06-17T04:42:47.261Z,24480.00
2023-06-17T04:43:48.071Z,23872.00
2023-06-17T04:44:47.214Z,22048.00
2023-06-17T04:45:47.191Z,20928.00
2023-06-17T04:46:47.270Z,20672.00
2023-06-17T04:47:47.197Z,20512.00
2023-06-17T04:48:47.183Z,20576.00
2023-06-17T04:49:48.081Z,20832.00
2023-06-17T04:50:47.188Z,20416.00
2023-06-17T04:51:47.205Z,19872.00
2023-06-17T04:52:47.184Z,19808.00
2023-06-17T04:53:47.176Z,19936.00
2023-06-17T04:54:47.130Z,19840.00
2023-06-17T04:55:47.117Z,20000.00
2023-06-17T04:56:47.119Z,20224.00
2023-06-17T04:57:47.118Z,20256.00
2023-06-17T04:58:47.131Z,20384.00
2023-06-17T04:59:47.125Z,20640.00
2023-06-17T05:00:47.160Z,20864.00
2023-06-17T05:01:47.105Z,21472.00
2023-06-17T05:02:47.126Z,23392.00
2023-06-17T05:03:47.150Z,28608.00
2023-06-17T05:04:47.064Z,36416.00
2023-06-17T05:05:47.054Z,42528.00
2023-06-17T05:06:47.050Z,45280.00
2023-06-17T05:07:47.021Z,46528.00
2023-06-17T05:08:47.048Z,46880.00
2023-06-17T05:09:46.999Z,47968.00
2023-06-17T05:10:47.032Z,48576.00
2023-06-17T05:11:47.018Z,48384.00
2023-06-17T05:12:47.040Z,49568.00
2023-06-17T05:13:47.015Z,50112.00
2023-06-17T05:14:46.997Z,50624.00
2023-06-17T05:15:46.996Z,51424.00
2023-06-17T05:16:47.013Z,52288.00
2023-06-17T05:17:47.022Z,53632.00
2023-06-17T05:18:46.968Z,54496.00
2023-06-17T05:19:46.968Z,55904.00
2023-06-17T05:20:46.959Z,56448.00
2023-06-17T05:21:46.936Z,55744.00
2023-06-17T05:22:47.144Z,55712.00
2023-06-17T05:23:46.986Z,57824.00
2023-06-17T05:24:46.952Z,58144.00
2023-06-17T05:25:46.891Z,58464.00
2023-06-17T05:26:46.917Z,58304.00
2023-06-17T05:27:46.874Z,59808.00
2023-06-17T05:28:46.892Z,59968.00
2023-06-17T05:29:46.847Z,58656.00
2023-06-17T05:30:46.893Z,59616.00
2023-06-17T05:31:46.833Z,60512.00
2023-06-17T05:32:46.917Z,60320.00
2023-06-17T05:33:46.847Z,61408.00
2023-06-17T05:34:46.826Z,62144.00
2023-06-17T05:35:46.816Z,61984.00
2023-06-17T05:36:46.830Z,60352.00
2023-06-17T05:37:46.833Z,61056.00
2023-06-17T05:38:46.822Z,61056.00
2023-06-17T05:39:46.787Z,58304.00
2023-06-17T05:40:46.792Z,61216.00
2023-06-17T05:41:46.783Z,62144.00
2023-06-17T05:42:46.791Z,62496.00
2023-06-17T05:43:46.753Z,63520.00
2023-06-17T05:44:47.428Z,64000.00
2023-06-17T05:45:46.753Z,64224.00
2023-06-17T05:46:46.794Z,64000.00
2023-06-17T05:47:46.763Z,61792.00
2023-06-17T05:48:46.746Z,63296.00
2023-06-17T05:49:46.725Z,62560.00
2023-06-17T05:50:46.709Z,65408.00
2023-06-17T05:51:46.736Z,68064.00
2023-06-17T05:52:46.707Z,69760.00
2023-06-17T05:53:47.140Z,70176.00
2023-06-17T05:54:47.676Z,70880.00
2023-06-17T05:55:46.668Z,70688.00
2023-06-17T05:56:46.673Z,71040.00
2023-06-17T05:57:46.674Z,69856.00
2023-06-17T05:58:46.693Z,70432.00
2023-06-17T05:59:46.653Z,70656.00
2023-06-17T06:00:46.662Z,70240.00
2023-06-17T06:01:46.696Z,69952.00
2023-06-17T06:02:46.731Z,71904.00
2023-06-17T06:03:46.677Z,71232.00
2023-06-17T06:04:46.649Z,71744.00
2023-06-17T06:05:46.625Z,71904.00
2023-06-17T06:06:46.623Z,71392.00
2023-06-17T06:07:46.604Z,71968.00
2023-06-17T06:08:46.593Z,72800.00
2023-06-17T06:09:46.628Z,73088.00
2023-06-17T06:10:46.669Z,73152.00
2023-06-17T06:11:46.592Z,73824.00
2023-06-17T06:12:46.577Z,74016.00
2023-06-17T06:13:47.484Z,73568.00
2023-06-17T06:14:47.292Z,72256.00
2023-06-17T06:15:47.556Z,72416.00
2023-06-17T06:16:46.688Z,70304.00
2023-06-17T06:17:47.154Z,66912.00
2023-06-17T06:18:46.534Z,68800.00
2023-06-17T06:19:46.541Z,71008.00
2023-06-17T06:20:47.205Z,70752.00
2023-06-17T06:21:46.491Z,70912.00
2023-06-17T06:22:47.477Z,72352.00
2023-06-17T06:23:46.460Z,71488.00
2023-06-17T06:24:46.478Z,72256.00
2023-06-17T06:25:46.467Z,72448.00
2023-06-17T06:26:47.501Z,71872.00
2023-06-17T06:27:46.441Z,71776.00
2023-06-17T06:28:46.442Z,73152.00
2023-06-17T06:29:46.455Z,72160.00
2023-06-17T06:30:46.408Z,72576.00
2023-06-17T06:31:46.475Z,73216.00
2023-06-17T06:32:46.452Z,73984.00
2023-06-17T06:33:46.415Z,73248.00
2023-06-17T06:34:46.422Z,72192.00
2023-06-17T06:35:46.383Z,72288.00
2023-06-17T06:36:46.365Z,71968.00
2023-06-17T06:37:46.412Z,71296.00
2023-06-17T06:38:46.379Z,70816.00
2023-06-17T06:39:46.387Z,68928.00
2023-06-17T06:40:46.358Z,69280.00
2023-06-17T06:41:46.351Z,71072.00
2023-06-17T06:42:46.336Z,71264.00
2023-06-17T06:43:46.370Z,70208.00
2023-06-17T06:44:46.348Z,69472.00
2023-06-17T06:45:46.373Z,69344.00
2023-06-17T06:46:46.290Z,71040.00
2023-06-17T06:47:46.336Z,71264.00
2023-06-17T06:48:46.301Z,69696.00
2023-06-17T06:49:46.302Z,71424.00
2023-06-17T06:50:46.283Z,71360.00
2023-06-17T06:51:46.289Z,71168.00
2023-06-17T06:52:46.258Z,71968.00
2023-06-17T06:53:46.300Z,72320.00
2023-06-17T06:54:46.258Z,72032.00
2023-06-17T06:55:46.223Z,72064.00
2023-06-17T06:56:46.961Z,73184.00
2023-06-17T06:57:46.958Z,72928.00
2023-06-17T06:58:46.248Z,72800.00
2023-06-17T06:59:46.233Z,72672.00
2023-06-17T07:00:46.217Z,71488.00
2023-06-17T07:01:46.207Z,70400.00
2023-06-17T07:02:46.218Z,71008.00
2023-06-17T07:03:46.179Z,72544.00
2023-06-17T07:04:46.219Z,72320.00
2023-06-17T07:05:46.191Z,71616.00
2023-06-17T07:06:46.184Z,70208.00
2023-06-17T07:07:46.168Z,70240.00
2023-06-17T07:08:46.147Z,69824.00
2023-06-17T07:09:46.153Z,70400.00
2023-06-17T07:10:46.149Z,70368.00
2023-06-17T07:11:46.121Z,70080.00
2023-06-17T07:12:46.101Z,70048.00
2023-06-17T07:13:46.128Z,71456.00
2023-06-17T07:14:46.123Z,70784.00
2023-06-17T07:15:46.137Z,71232.00
2023-06-17T07:16:46.127Z,70976.00
2023-06-17T07:17:46.105Z,68128.00
2023-06-17T07:18:46.111Z,61312.00
2023-06-17T07:19:46.067Z,55360.00
2023-06-17T07:20:46.080Z,66752.00
2023-06-17T07:21:46.073Z,74080.00
2023-06-17T07:22:46.091Z,74592.00
2023-06-17T07:23:46.029Z,73408.00
2023-06-17T07:24:46.051Z,73568.00
2023-06-17T07:25:46.047Z,75040.00
2023-06-17T07:26:46.030Z,76224.00
2023-06-17T07:27:46.007Z,75328.00
2023-06-17T07:28:46.008Z,75008.00
2023-06-17T07:29:47.005Z,73664.00
2023-06-17T07:30:46.046Z,72096.00
2023-06-17T07:31:46.120Z,71936.00
2023-06-17T07:32:45.993Z,74048.00
2023-06-17T07:33:45.963Z,73408.00
2023-06-17T07:34:45.964Z,72864.00
2023-06-17T07:35:45.992Z,73952.00
2023-06-17T07:36:45.980Z,70880.00
2023-06-17T07:37:45.965Z,71200.00
2023-06-17T07:38:45.942Z,72832.00
2023-06-17T07:39:45.922Z,73024.00
2023-06-17T07:40:45.932Z,72000.00
2023-06-17T07:41:45.929Z,71648.00
2023-06-17T07:42:45.958Z,70336.00
2023-06-17T07:43:45.937Z,71392.00
2023-06-17T07:44:45.948Z,71904.00
2023-06-17T07:45:45.888Z,72512.00
2023-06-17T07:46:45.945Z,71744.00
2023-06-17T07:47:46.021Z,69952.00
2023-06-17T07:48:45.872Z,70880.00
2023-06-17T07:49:45.857Z,69536.00
2023-06-17T07:50:45.870Z,68864.00
2023-06-17T07:51:45.871Z,69344.00
2023-06-17T07:52:45.850Z,68288.00
2023-06-17T07:53:45.865Z,67552.00
2023-06-17T07:54:45.834Z,65600.00
2023-06-17T07:55:45.823Z,48096.00
2023-06-17T07:56:45.836Z,24736.00
2023-06-17T07:57:46.642Z,20288.00
2023-06-17T07:58:45.817Z,19840.00
2023-06-17T07:59:46.701Z,19648.00
2023-06-17T08:00:45.808Z,19552.00
2023-06-17T08:01:45.843Z,20160.00
2023-06-17T08:02:45.870Z,20928.00
2023-06-17T08:03:45.953Z,21440.00
2023-06-17T08:04:45.800Z,21088.00
2023-06-17T08:05:45.783Z,20768.00
2023-06-17T08:06:45.777Z,20480.00
2023-06-17T08:07:45.792Z,20480.00
2023-06-17T08:08:45.752Z,20288.00
2023-06-17T08:09:45.711Z,20416.00
2023-06-17T08:10:45.756Z,20416.00
2023-06-17T08:11:45.827Z,20352.00
2023-06-17T08:12:45.741Z,20640.00
2023-06-17T08:13:45.736Z,20928.00
2023-06-17T08:14:46.652Z,21568.00
2023-06-17T08:15:45.708Z,21952.00
2023-06-17T08:16:45.702Z,23040.00
2023-06-17T08:17:45.738Z,22720.00
2023-06-17T08:18:45.661Z,21440.00
2023-06-17T08:19:45.652Z,21248.00
2023-06-17T08:20:45.750Z,21184.00
2023-06-17T08:21:45.655Z,20704.00
2023-06-17T08:22:45.656Z,19968.00
2023-06-17T08:23:46.175Z,20576.00
2023-06-17T08:24:46.653Z,20960.00
2023-06-17T08:25:45.608Z,20416.00
2023-06-17T08:26:45.671Z,20096.00
2023-06-17T08:27:45.620Z,19680.00
2023-06-17T08:28:45.608Z,19776.00
2023-06-17T08:29:46.622Z,19776.00
2023-06-17T08:30:45.582Z,18976.00
2023-06-17T08:31:45.605Z,18496.00
2023-06-17T08:32:45.616Z,18464.00
2023-06-17T08:33:45.601Z,18304.00
2023-06-17T08:34:45.597Z,18400.00
2023-06-17T08:35:46.193Z,18112.00
2023-06-17T08:36:45.531Z,18080.00
2023-06-17T08:37:45.587Z,17984.00
2023-06-17T08:38:45.544Z,17888.00
2023-06-17T08:39:45.631Z,17760.00
2023-06-17T08:40:45.513Z,17696.00
2023-06-17T08:41:45.513Z,17600.00
2023-06-17T08:42:45.503Z,17632.00
2023-06-17T08:43:45.528Z,17664.00
2023-06-17T08:44:45.512Z,17696.00
2023-06-17T08:45:46.193Z,17760.00
2023-06-17T08:46:45.515Z,17696.00
2023-06-17T08:47:45.563Z,17632.00
2023-06-17T08:48:45.461Z,17632.00
2023-06-17T08:49:45.488Z,17600.00
2023-06-17T08:50:45.486Z,17696.00
2023-06-17T08:51:45.454Z,17696.00
2023-06-17T08:52:45.461Z,17824.00
2023-06-17T08:53:45.421Z,17760.00
2023-06-17T08:54:45.441Z,17824.00
2023-06-17T08:55:45.419Z,17792.00
2023-06-17T08:56:45.420Z,17792.00
2023-06-17T08:57:45.419Z,18048.00
2023-06-17T08:58:45.386Z,18272.00
2023-06-17T08:59:45.418Z,18208.00
2023-06-17T09:00:45.407Z,18048.00
2023-06-17T09:01:45.420Z,17760.00
2023-06-17T09:02:45.411Z,17664.00
2023-06-17T09:03:45.360Z,17728.00
2023-06-17T09:04:45.370Z,17760.00
2023-06-17T09:05:45.341Z,17600.00
2023-06-17T09:06:45.344Z,17248.00
2023-06-17T09:07:45.367Z,17056.00
2023-06-17T09:08:45.396Z,16928.00
2023-06-17T09:09:45.311Z,16672.00
2023-06-17T09:10:45.321Z,16484.00
2023-06-17T09:11:45.312Z,16304.00
2023-06-17T09:12:45.315Z,16224.00
2023-06-17T09:13:46.278Z,16108.00
2023-06-17T09:14:45.301Z,16072.00
2023-06-17T09:15:45.294Z,16052.00
2023-06-17T09:16:46.858Z,15908.00
2023-06-17T09:17:45.319Z,15792.00
2023-06-17T09:18:46.120Z,15736.00
2023-06-17T09:19:45.250Z,15720.00
2023-06-17T09:20:45.210Z,15612.00
2023-06-17T09:21:46.293Z,15528.00
2023-06-17T09:22:46.123Z,15536.00
2023-06-17T09:23:45.206Z,15384.00
2023-06-17T09:24:45.207Z,15264.00
2023-06-17T09:25:45.231Z,15320.00
2023-06-17T09:26:45.334Z,15224.00
2023-06-17T09:27:50.620Z,15128.00
2023-06-17T09:28:46.221Z,15092.00
2023-06-17T09:29:45.702Z,14992.00
2023-06-17T09:30:45.613Z,14964.00
2023-06-17T09:31:45.206Z,14944.00
2023-06-17T09:32:45.210Z,14932.00
2023-06-17T09:33:45.155Z,14848.00
2023-06-17T09:34:45.166Z,14816.00
2023-06-17T09:35:45.149Z,14776.00
2023-06-17T09:36:45.143Z,14708.00
2023-06-17T09:37:57.997Z,14640.00
2023-06-17T09:38:46.231Z,14596.00
2023-06-17T09:39:45.141Z,14632.00
2023-06-17T09:40:45.117Z,14508.00
2023-06-17T09:41:45.146Z,14464.00
2023-06-17T09:42:45.136Z,14364.00
2023-06-17T09:43:45.140Z,14272.00
2023-06-17T09:44:45.090Z,14640.00
2023-06-17T09:45:45.131Z,14292.00
2023-06-17T09:46:45.104Z,14032.00
2023-06-17T09:47:45.145Z,14036.00
2023-06-17T09:48:45.087Z,13964.00
2023-06-17T09:49:45.047Z,13872.00
2023-06-17T09:50:45.706Z,13716.00
2023-06-17T09:51:45.041Z,13664.00
2023-06-17T09:52:45.036Z,13636.00
2023-06-17T09:53:45.627Z,13584.00
2023-06-17T09:54:45.044Z,13568.00
2023-06-17T09:55:45.020Z,13464.00
2023-06-17T09:56:45.155Z,13388.00
2023-06-17T09:57:45.054Z,13256.00
2023-06-17T09:58:45.090Z,13236.00
2023-06-17T09:59:45.047Z,13180.00
2023-06-17T10:00:44.992Z,13116.00
2023-06-17T10:01:44.978Z,13000.00
2023-06-17T10:02:45.139Z,12968.00
2023-06-17T10:03:45.100Z,12884.00
2023-06-17T10:04:45.052Z,12824.00
2023-06-17T10:05:44.997Z,12696.00
2023-06-17T10:06:44.990Z,12720.00
2023-06-17T10:07:44.999Z,12676.00
2023-06-17T10:08:45.741Z,12600.00
2023-06-17T10:09:44.941Z,12588.00
2023-06-17T10:10:44.921Z,12548.00
2023-06-17T10:11:44.963Z,12472.00
2023-06-17T10:12:45.005Z,12436.00
2023-06-17T10:13:44.921Z,12408.00
2023-06-17T10:14:44.894Z,12316.00
2023-06-17T10:15:44.873Z,12188.00
2023-06-17T10:16:45.450Z,12164.00
2023-06-17T10:17:45.970Z,12196.00
2023-06-17T10:18:44.918Z,12080.00
2023-06-17T10:19:44.874Z,12092.00
2023-06-17T10:20:44.892Z,12056.00
2023-06-17T10:21:44.847Z,12000.00
2023-06-17T10:22:44.866Z,11928.00
2023-06-17T10:23:44.866Z,11892.00
2023-06-17T10:24:45.014Z,11856.00
2023-06-17T10:25:44.900Z,11832.00
2023-06-17T10:26:44.855Z,11788.00
2023-06-17T10:27:44.822Z,11696.00
2023-06-17T10:28:44.849Z,11612.00
2023-06-17T10:29:44.839Z,11824.00
2023-06-17T10:30:44.814Z,11592.00
2023-06-17T10:31:44.806Z,11560.00
2023-06-17T10:32:44.831Z,11532.00
2023-06-17T10:33:44.820Z,11500.00
2023-06-17T10:34:44.785Z,11500.00
2023-06-17T10:35:45.781Z,11364.00
2023-06-17T10:36:44.749Z,11332.00
2023-06-17T10:37:44.749Z,11288.00
2023-06-17T10:38:44.745Z,11296.00
2023-06-17T10:39:44.739Z,11332.00
2023-06-17T10:40:44.840Z,11332.00
2023-06-17T10:41:44.721Z,11312.00
2023-06-17T10:42:44.777Z,11272.00
2023-06-17T10:43:45.557Z,11236.00
2023-06-17T10:44:44.732Z,11212.00
2023-06-17T10:45:44.817Z,11172.00
2023-06-17T10:46:44.694Z,11176.00
2023-06-17T10:47:44.759Z,11224.00
2023-06-17T10:48:44.697Z,11228.00
2023-06-17T10:49:44.638Z,11324.00
2023-06-17T10:50:44.676Z,11276.00
2023-06-17T10:51:57.404Z,11268.00
2023-06-17T10:52:46.657Z,11184.00
2023-06-17T10:53:44.794Z,11420.00
2023-06-17T10:54:44.671Z,11364.00
2023-06-17T10:55:45.350Z,11324.00
2023-06-17T10:56:45.326Z,11148.00
2023-06-17T10:57:44.629Z,11060.00
2023-06-17T10:58:44.678Z,10964.00
2023-06-17T10:59:44.606Z,10980.00
2023-06-17T11:00:44.611Z,10964.00
2023-06-17T11:01:44.580Z,10928.00
2023-06-17T11:02:44.630Z,10968.00
2023-06-17T11:03:44.645Z,11052.00
2023-06-17T11:04:44.558Z,11104.00
2023-06-17T11:05:44.569Z,11224.00
2023-06-17T11:06:44.552Z,11312.00
2023-06-17T11:07:44.581Z,11372.00
2023-06-17T11:08:44.556Z,11408.00
2023-06-17T11:09:44.558Z,11512.00
2023-06-17T11:10:45.721Z,11544.00
2023-06-17T11:11:45.320Z,11708.00
2023-06-17T11:12:45.290Z,11760.00
2023-06-17T11:13:44.594Z,11740.00
2023-06-17T11:14:44.513Z,11768.00
2023-06-17T11:15:44.574Z,11776.00
2023-06-17T11:16:44.500Z,11812.00
2023-06-17T11:17:44.611Z,11852.00
2023-06-17T11:18:44.498Z,11712.00
2023-06-17T11:19:44.496Z,11748.00
2023-06-17T11:20:44.543Z,11808.00
2023-06-17T11:21:44.451Z,10452.00
2023-06-17T11:22:44.472Z,10652.00
2023-06-17T11:23:44.535Z,11628.00
2023-06-17T11:24:44.464Z,8936.00
2023-06-17T11:25:46.054Z,9004.00
2023-06-17T11:26:44.489Z,11328.00
2023-06-17T11:27:44.394Z,11536.00
2023-06-17T11:28:44.420Z,11808.00
2023-06-17T11:29:44.410Z,12040.00
2023-06-17T11:30:44.780Z,12152.00
2023-06-17T11:31:44.383Z,9348.00
2023-06-17T11:32:44.508Z,10652.00
2023-06-17T11:33:44.389Z,12116.00
2023-06-17T11:35:16.287Z,12048.00
2023-06-17T11:36:16.827Z,8668.00
2023-06-17T11:36:44.420Z,8548.00
2023-06-17T11:37:44.389Z,8448.00
2023-06-17T11:38:44.390Z,8520.00
2023-06-17T11:39:44.363Z,8960.00
2023-06-17T11:40:44.336Z,9988.00
2023-06-17T11:41:45.313Z,8776.00
2023-06-17T11:42:44.346Z,9436.00
2023-06-17T11:43:44.434Z,9696.00
2023-06-17T11:44:44.364Z,8424.00
2023-06-17T11:45:44.341Z,9428.00
2023-06-17T11:46:44.435Z,11300.00
2023-06-17T11:47:44.336Z,12424.00
2023-06-17T11:48:44.360Z,11608.00
2023-06-17T11:49:44.303Z,11076.00
2023-06-17T11:50:44.289Z,11996.00
2023-06-17T11:51:44.264Z,12260.00
2023-06-17T11:52:44.314Z,11816.00
2023-06-17T11:53:44.267Z,10036.00
2023-06-17T11:54:44.229Z,11160.00
2023-06-17T11:55:44.238Z,8388.00
2023-06-17T11:56:44.253Z,8156.00
2023-06-17T11:57:44.283Z,11312.00
2023-06-17T11:58:44.304Z,11996.00
2023-06-17T11:59:44.236Z,12172.00
2023-06-17T12:00:45.138Z,12308.00
2023-06-17T12:01:44.277Z,12416.00
2023-06-17T12:02:44.415Z,12340.00
2023-06-17T12:03:44.238Z,12164.00
2023-06-17T12:04:44.206Z,8856.00
2023-06-17T12:05:44.214Z,8060.00
2023-06-17T12:06:44.248Z,7852.00
2023-06-17T12:07:44.166Z,7900.00
2023-06-17T12:08:44.154Z,7692.00
2023-06-17T12:09:44.177Z,7656.00
2023-06-17T12:10:44.195Z,11552.00
2023-06-17T12:11:44.162Z,8120.00
2023-06-17T12:12:44.140Z,11716.00
2023-06-17T12:13:44.086Z,11880.00
2023-06-17T12:14:44.116Z,8232.00
2023-06-17T12:15:44.102Z,8076.00
2023-06-17T12:16:45.900Z,8644.00
2023-06-17T12:17:44.210Z,7868.00
2023-06-17T12:18:44.088Z,7680.00
2023-06-17T12:19:44.079Z,7440.00
2023-06-17T12:20:44.130Z,7232.00
2023-06-17T12:21:44.816Z,7124.00
2023-06-17T12:22:44.093Z,6940.00
2023-06-17T12:23:44.649Z,6860.00